createdAt,value
2023-01-22T00:01:38.188Z,13.13
2023-01-22T00:04:06.584Z,12.57
2023-01-22T00:06:34.758Z,11.60
2023-01-22T00:09:03.909Z,13.40
2023-01-22T00:11:32.190Z,12.90
2023-01-22T00:14:01.715Z,12.27
2023-01-22T00:16:29.951Z,12.20
2023-01-22T00:18:58.637Z,13.63
2023-01-22T00:21:27.679Z,14.40
2023-01-22T00:23:55.825Z,13.27
2023-01-22T00:26:24.050Z,12.00
2023-01-22T00:28:52.207Z,11.17
2023-01-22T00:31:22.177Z,11.87
2023-01-22T00:33:50.415Z,11.57
2023-01-22T00:36:20.048Z,12.20
2023-01-22T00:38:49.188Z,11.37
2023-01-22T00:41:18.354Z,11.90
2023-01-22T00:43:48.181Z,10.83
2023-01-22T00:46:17.510Z,11.50
2023-01-22T00:48:49.407Z,10.70
2023-01-22T00:51:17.976Z,12.40
2023-01-22T00:53:46.428Z,11.90
2023-01-22T00:56:15.584Z,10.57
2023-01-22T00:58:44.141Z,12.00
2023-01-22T01:01:14.568Z,11.30
2023-01-22T01:03:43.267Z,12.70
2023-01-22T01:06:16.478Z,12.00
2023-01-22T01:08:45.351Z,12.37
2023-01-22T01:11:16.421Z,11.90
2023-01-22T01:13:45.497Z,11.60
2023-01-22T01:16:15.731Z,11.73
2023-01-22T01:18:44.536Z,12.50
2023-01-22T01:21:14.668Z,12.37
2023-01-22T01:23:43.695Z,13.10
2023-01-22T01:26:14.696Z,11.67
2023-01-22T01:28:44.062Z,12.50
2023-01-22T01:31:15.428Z,14.00
2023-01-22T01:33:44.012Z,12.73
2023-01-22T01:36:15.608Z,11.20
2023-01-22T01:38:43.887Z,12.70
2023-01-22T01:41:15.014Z,14.03
2023-01-22T01:43:43.375Z,12.13
2023-01-22T01:46:19.958Z,13.00
2023-01-22T01:48:51.922Z,13.00
2023-01-22T01:51:27.919Z,11.90
2023-01-22T01:53:57.147Z,12.10
2023-01-22T01:56:32.087Z,12.57
2023-01-22T01:59:03.474Z,12.30
2023-01-22T02:01:32.739Z,11.27
2023-01-22T02:04:01.808Z,12.40
2023-01-22T02:06:31.422Z,12.43
2023-01-22T02:09:00.411Z,12.87
2023-01-22T02:11:30.314Z,12.93
2023-01-22T02:14:02.673Z,12.67
2023-01-22T02:16:31.163Z,13.30
2023-01-22T02:18:59.660Z,13.50
2023-01-22T02:21:40.932Z,13.47
2023-01-22T02:24:11.546Z,12.80
2023-01-22T02:26:40.672Z,11.73
2023-01-22T02:29:10.335Z,13.57
2023-01-22T02:31:41.058Z,14.67
2023-01-22T02:34:10.644Z,15.30
2023-01-22T02:36:41.299Z,14.87
2023-01-22T02:39:09.569Z,14.60
2023-01-22T02:41:37.819Z,13.10
2023-01-22T02:44:07.339Z,15.50
2023-01-22T02:46:35.731Z,14.10
2023-01-22T02:49:03.922Z,15.80
2023-01-22T02:51:32.236Z,13.63
2023-01-22T02:54:01.765Z,13.93
2023-01-22T02:56:30.022Z,15.60
2023-01-22T02:58:58.179Z,14.80
2023-01-22T03:01:26.478Z,14.33
2023-01-22T03:03:56.800Z,15.33
2023-01-22T03:06:27.276Z,14.50
2023-01-22T03:08:57.125Z,14.03
2023-01-22T03:11:28.936Z,14.20
2023-01-22T03:14:15.226Z,16.60
2023-01-22T03:17:01.834Z,13.90
2023-01-22T03:19:47.934Z,15.07
2023-01-22T03:22:17.035Z,14.27
2023-01-22T03:24:50.341Z,14.10
2023-01-22T03:27:21.867Z,13.63
2023-01-22T03:29:50.257Z,15.07
2023-01-22T03:32:18.722Z,15.00
2023-01-22T03:34:47.142Z,14.27
2023-01-22T03:37:15.499Z,13.87
2023-01-22T03:39:43.912Z,14.27
2023-01-22T03:42:12.275Z,14.90
2023-01-22T03:44:41.747Z,14.73
2023-01-22T03:47:10.000Z,13.07
2023-01-22T03:49:38.153Z,14.80
2023-01-22T03:52:06.311Z,13.60
2023-01-22T03:54:34.480Z,13.90
2023-01-22T03:57:02.625Z,15.23
2023-01-22T03:59:30.786Z,13.87
2023-01-22T04:02:00.321Z,14.77
2023-01-22T04:04:28.478Z,14.33
2023-01-22T04:06:56.723Z,14.27
2023-01-22T04:09:24.841Z,13.37
2023-01-22T04:11:53.012Z,14.30
2023-01-22T04:14:21.157Z,13.07
2023-01-22T04:16:50.411Z,14.90
2023-01-22T04:19:19.908Z,13.70
2023-01-22T04:21:49.067Z,12.93
2023-01-22T04:24:17.319Z,13.70
2023-01-22T04:26:46.264Z,14.10
2023-01-22T04:29:14.625Z,12.80
2023-01-22T04:31:42.894Z,13.60
2023-01-22T04:34:11.167Z,14.77
2023-01-22T04:36:40.680Z,12.67
2023-01-22T04:39:08.842Z,14.60
2023-01-22T04:41:37.082Z,14.00
2023-01-22T04:44:05.332Z,14.23
2023-01-22T04:46:33.566Z,13.60
2023-01-22T04:49:01.727Z,13.03
2023-01-22T04:51:29.968Z,13.07
2023-01-22T04:53:59.422Z,13.57
2023-01-22T04:56:27.642Z,12.80
2023-01-22T04:58:55.848Z,14.07
2023-01-22T05:01:24.051Z,13.20
2023-01-22T05:03:52.249Z,13.37
2023-01-22T05:06:20.438Z,13.10
2023-01-22T05:08:48.536Z,13.53
2023-01-22T05:11:18.063Z,13.07
2023-01-22T05:13:46.187Z,11.97
2023-01-22T05:16:14.474Z,11.90
2023-01-22T05:18:42.608Z,13.87
2023-01-22T05:21:10.786Z,11.40
2023-01-22T05:23:38.961Z,12.20
2023-01-22T05:26:07.303Z,12.93
2023-01-22T05:28:37.075Z,10.93
2023-01-22T05:31:05.372Z,11.70
2023-01-22T05:33:33.671Z,12.20
2023-01-22T05:36:03.318Z,12.70
2023-01-22T05:38:32.327Z,12.50
2023-01-22T05:41:00.548Z,11.60
2023-01-22T05:43:28.668Z,12.27
2023-01-22T05:46:02.833Z,12.30
2023-01-22T05:48:33.159Z,11.77
2023-01-22T05:51:04.996Z,11.77
2023-01-22T05:53:33.585Z,10.67
2023-01-22T05:56:02.665Z,11.30
2023-01-22T05:58:30.966Z,11.43
2023-01-22T06:00:59.794Z,10.97
2023-01-22T06:03:29.232Z,11.07
2023-01-22T06:06:01.233Z,11.13
2023-01-22T06:08:30.025Z,11.50
2023-01-22T06:11:01.951Z,11.13
2023-01-22T06:13:30.813Z,10.67
2023-01-22T06:15:59.326Z,11.60
2023-01-22T06:18:29.358Z,11.20
2023-01-22T06:21:00.000Z,11.27
2023-01-22T06:23:29.559Z,11.40
2023-01-22T06:26:00.010Z,9.50
2023-01-22T06:28:29.127Z,10.90
2023-01-22T06:31:02.405Z,10.13
2023-01-22T06:33:32.911Z,12.30
2023-01-22T06:36:01.769Z,12.37
2023-01-22T06:38:30.174Z,10.47
2023-01-22T06:40:59.610Z,11.40
2023-01-22T06:43:28.931Z,10.60
2023-01-22T06:45:57.139Z,11.87
2023-01-22T06:48:25.299Z,12.30
2023-01-22T06:50:58.475Z,11.63
2023-01-22T06:53:26.764Z,11.40
2023-01-22T06:55:55.211Z,11.17
2023-01-22T06:58:23.477Z,10.80
2023-01-22T07:00:51.760Z,11.53
2023-01-22T07:03:20.056Z,11.30
2023-01-22T07:05:55.995Z,11.57
2023-01-22T07:08:25.475Z,11.07
2023-01-22T07:10:53.691Z,11.67
2023-01-22T07:13:22.421Z,10.90
2023-01-22T07:15:50.728Z,11.80
2023-01-22T07:18:20.875Z,11.50
2023-01-22T07:20:49.133Z,11.00
2023-01-22T07:23:17.401Z,11.30
2023-01-22T07:25:47.551Z,11.50
2023-01-22T07:28:16.386Z,11.10
2023-01-22T07:30:46.831Z,10.50
2023-01-22T07:33:16.479Z,10.40
2023-01-22T07:35:45.345Z,11.13
2023-01-22T07:38:13.539Z,11.23
2023-01-22T07:40:41.726Z,10.93
2023-01-22T07:43:14.994Z,9.87
2023-01-22T07:45:43.177Z,11.30
2023-01-22T07:48:11.613Z,12.70
2023-01-22T07:50:40.212Z,12.13
2023-01-22T07:53:11.675Z,11.83
2023-01-22T07:55:41.483Z,11.87
2023-01-22T07:58:11.830Z,12.30
2023-01-22T08:00:40.063Z,10.67
2023-01-22T08:03:10.381Z,10.53
2023-01-22T08:05:40.344Z,11.87
2023-01-22T08:08:14.277Z,10.50
2023-01-22T08:10:42.892Z,11.40
2023-01-22T08:13:12.484Z,10.63
2023-01-22T08:15:42.472Z,11.57
2023-01-22T08:18:11.415Z,11.80
2023-01-22T08:20:39.653Z,11.20
2023-01-22T08:23:07.951Z,10.07
2023-01-22T08:25:36.128Z,10.07
2023-01-22T08:28:05.411Z,10.30
2023-01-22T08:30:45.472Z,11.17
2023-01-22T08:33:15.632Z,10.43
2023-01-22T08:35:43.917Z,11.27
2023-01-22T08:38:12.173Z,10.57
2023-01-22T08:40:40.321Z,10.00
2023-01-22T08:43:09.147Z,9.80
2023-01-22T08:45:38.746Z,10.97
2023-01-22T08:48:07.453Z,9.37
2023-01-22T08:50:35.758Z,10.43
2023-01-22T08:53:03.964Z,9.80
2023-01-22T08:55:32.199Z,11.03
2023-01-22T08:58:00.494Z,10.10
2023-01-22T09:00:29.058Z,11.27
2023-01-22T09:03:01.545Z,9.83
2023-01-22T09:05:29.721Z,10.13
2023-01-22T09:07:57.877Z,10.10
2023-01-22T09:10:26.091Z,10.00
2023-01-22T09:12:54.285Z,9.50
2023-01-22T09:15:22.467Z,10.90
2023-01-22T09:17:50.660Z,11.13
2023-01-22T09:20:20.800Z,9.60
2023-01-22T09:22:49.559Z,9.70
2023-01-22T09:25:17.971Z,9.60
2023-01-22T09:27:46.156Z,9.40
2023-01-22T09:30:15.033Z,9.60
2023-01-22T09:32:43.181Z,9.80
2023-01-22T09:35:11.608Z,10.37
2023-01-22T09:37:41.089Z,9.70
2023-01-22T09:40:13.508Z,9.97
2023-01-22T09:42:42.703Z,9.60
2023-01-22T09:45:14.543Z,9.53
2023-01-22T09:47:47.337Z,9.77
2023-01-22T09:50:21.021Z,9.50
2023-01-22T09:52:52.390Z,8.80
2023-01-22T09:55:23.635Z,10.67
2023-01-22T09:57:55.491Z,9.90
2023-01-22T10:00:28.022Z,9.10
2023-01-22T10:03:00.557Z,10.10
2023-01-22T10:05:32.472Z,8.97
2023-01-22T10:08:08.415Z,9.97
2023-01-22T10:10:37.035Z,9.20
2023-01-22T10:13:14.024Z,9.17
2023-01-22T10:15:42.384Z,10.20
2023-01-22T10:18:23.530Z,10.20
2023-01-22T10:20:52.071Z,9.90
2023-01-22T10:23:23.813Z,10.10
2023-01-22T10:25:55.357Z,9.77
2023-01-22T10:28:27.704Z,9.03
2023-01-22T10:30:58.768Z,9.30
2023-01-22T10:33:28.768Z,10.20
2023-01-22T10:35:57.999Z,9.00
2023-01-22T10:38:29.933Z,10.07
2023-01-22T10:41:00.316Z,9.77
2023-01-22T10:43:34.268Z,9.17
2023-01-22T10:46:06.663Z,9.20
2023-01-22T10:48:35.197Z,7.70
2023-01-22T10:51:15.465Z,8.73
2023-01-22T10:53:50.758Z,8.57
2023-01-22T10:56:28.634Z,8.87
2023-01-22T10:58:59.113Z,9.43
2023-01-22T11:01:32.285Z,9.03
2023-01-22T11:04:00.690Z,9.77
2023-01-22T11:06:37.826Z,12.30
2023-01-22T11:09:13.750Z,9.37
2023-01-22T11:11:47.168Z,10.50
2023-01-22T11:14:22.661Z,11.67
2023-01-22T11:16:53.615Z,10.07
2023-01-22T11:19:36.646Z,11.00
2023-01-22T11:22:12.743Z,10.77
2023-01-22T11:24:48.342Z,10.00
2023-01-22T11:27:53.988Z,9.40
2023-01-22T11:30:46.593Z,9.47
2023-01-22T11:33:30.521Z,8.80
2023-01-22T11:36:04.015Z,9.43
2023-01-22T11:38:39.613Z,9.30
2023-01-22T11:41:39.575Z,9.17
2023-01-22T11:44:30.030Z,9.73
2023-01-22T11:47:16.329Z,9.77
2023-01-22T11:49:57.901Z,9.80
2023-01-22T11:52:37.330Z,8.70
2023-01-22T11:55:30.407Z,9.27
2023-01-22T11:58:11.660Z,9.20
2023-01-22T12:00:46.624Z,8.90
2023-01-22T12:03:45.021Z,10.00
2023-01-22T12:06:31.918Z,8.53
2023-01-22T12:09:09.844Z,9.43
2023-01-22T12:12:04.805Z,10.27
2023-01-22T12:14:45.831Z,10.73
2023-01-22T12:17:24.941Z,10.40
2023-01-22T12:20:15.935Z,10.00
2023-01-22T12:22:49.296Z,9.87
2023-01-22T12:25:27.500Z,9.60
2023-01-22T12:28:01.596Z,10.87
2023-01-22T12:30:40.108Z,9.40
2023-01-22T12:33:13.264Z,10.13
2023-01-22T12:35:42.277Z,10.10
2023-01-22T12:38:30.726Z,9.80
2023-01-22T12:41:14.035Z,10.97
2023-01-22T12:43:47.982Z,10.80
2023-01-22T12:46:25.426Z,11.00
2023-01-22T12:49:02.795Z,10.03
2023-01-22T12:51:38.589Z,10.60
2023-01-22T12:54:18.297Z,11.60
2023-01-22T12:56:46.800Z,10.00
2023-01-22T12:59:43.328Z,11.77
2023-01-22T13:02:38.894Z,11.40
2023-01-22T13:05:19.844Z,12.13
2023-01-22T13:07:49.355Z,10.77
2023-01-22T13:10:29.241Z,11.07
2023-01-22T13:12:59.623Z,11.87
2023-01-22T13:15:30.287Z,11.73
2023-01-22T13:18:08.356Z,11.20
2023-01-22T13:20:38.955Z,11.27
2023-01-22T13:23:08.497Z,13.50
2023-01-22T13:25:36.653Z,11.03
2023-01-22T13:28:06.027Z,11.63
2023-01-22T13:30:34.817Z,11.60
2023-01-22T13:33:06.292Z,10.80
2023-01-22T13:35:37.501Z,11.67
2023-01-22T13:38:05.612Z,11.57
2023-01-22T13:40:46.413Z,11.50
2023-01-22T13:43:20.092Z,9.97
2023-01-22T13:45:48.868Z,10.67
2023-01-22T13:48:19.643Z,9.93
2023-01-22T13:50:52.994Z,11.20
2023-01-22T13:53:28.559Z,10.77
2023-01-22T13:55:57.280Z,11.93
2023-01-22T13:58:47.121Z,10.07
2023-01-22T14:01:28.902Z,11.23
2023-01-22T14:04:02.926Z,9.90
2023-01-22T14:06:31.752Z,11.10
2023-01-22T14:08:59.993Z,11.13
2023-01-22T14:11:39.341Z,9.50
2023-01-22T14:14:17.365Z,10.60
2023-01-22T14:16:45.665Z,9.40
2023-01-22T14:19:15.344Z,10.80
2023-01-22T14:21:43.619Z,10.30
2023-01-22T14:24:11.763Z,10.70
2023-01-22T14:26:40.059Z,10.60
2023-01-22T14:29:09.195Z,10.93
2023-01-22T14:31:37.462Z,13.57
2023-01-22T14:34:05.770Z,10.97
2023-01-22T14:36:35.360Z,10.87
2023-01-22T14:39:05.803Z,10.77
2023-01-22T14:41:34.927Z,11.70
2023-01-22T14:44:03.963Z,12.17
2023-01-22T14:46:32.154Z,11.23
2023-01-22T14:49:01.833Z,12.93
2023-01-22T14:51:30.091Z,9.80
2023-01-22T14:54:01.439Z,11.67
2023-01-22T14:56:29.684Z,11.57
2023-01-22T14:58:57.844Z,11.53
2023-01-22T15:01:26.074Z,12.57
2023-01-22T15:03:54.297Z,12.00
2023-01-22T15:06:23.964Z,10.97
2023-01-22T15:08:52.372Z,12.30
2023-01-22T15:11:21.816Z,12.60
2023-01-22T15:13:52.590Z,11.20
2023-01-22T15:16:20.986Z,12.63
2023-01-22T15:18:49.209Z,12.87
2023-01-22T15:21:17.508Z,12.47
2023-01-22T15:23:45.596Z,12.00
2023-01-22T15:26:25.542Z,11.70
2023-01-22T15:28:54.611Z,11.47
2023-01-22T15:31:22.930Z,11.63
2023-01-22T15:33:51.456Z,12.70
2023-01-22T15:36:20.511Z,12.10
2023-01-22T15:38:48.748Z,10.50
2023-01-22T15:41:21.219Z,9.30
2023-01-22T15:43:51.782Z,8.20
2023-01-22T15:46:20.889Z,10.30
2023-01-22T15:48:49.582Z,9.63
2023-01-22T15:51:18.691Z,10.13
2023-01-22T15:53:49.665Z,10.10
2023-01-22T15:56:18.424Z,11.10
2023-01-22T15:58:46.935Z,11.20
2023-01-22T16:01:16.763Z,9.80
2023-01-22T16:03:45.212Z,10.33
2023-01-22T16:06:15.683Z,10.30
2023-01-22T16:08:45.268Z,9.57
2023-01-22T16:11:14.358Z,10.53
2023-01-22T16:13:43.083Z,10.27
2023-01-22T16:16:18.405Z,13.03
2023-01-22T16:18:47.456Z,13.47
2023-01-22T16:21:16.726Z,12.70
2023-01-22T16:23:46.720Z,15.07
2023-01-22T16:26:17.355Z,12.80
2023-01-22T16:28:46.729Z,13.13
2023-01-22T16:31:18.857Z,12.70
2023-01-22T16:33:49.157Z,13.03
2023-01-22T16:36:21.401Z,13.40
2023-01-22T16:38:50.019Z,13.90
2023-01-22T16:41:25.518Z,13.30
2023-01-22T16:43:56.223Z,13.80
2023-01-22T16:46:29.302Z,14.00
2023-01-22T16:49:02.021Z,13.80
2023-01-22T16:51:35.207Z,13.50
2023-01-22T16:54:03.689Z,14.23
2023-01-22T16:56:33.377Z,13.87
2023-01-22T16:59:01.939Z,15.03
2023-01-22T17:01:31.930Z,15.20
2023-01-22T17:04:00.110Z,14.50
2023-01-22T17:06:31.624Z,14.97
2023-01-22T17:08:59.985Z,15.40
2023-01-22T17:11:28.356Z,13.93
2023-01-22T17:13:56.512Z,15.63
2023-01-22T17:16:24.693Z,13.07
2023-01-22T17:18:56.171Z,13.50
2023-01-22T17:21:24.467Z,14.37
2023-01-22T17:23:52.623Z,15.07
2023-01-22T17:26:21.029Z,13.40
2023-01-22T17:28:49.120Z,14.23
2023-01-22T17:31:21.845Z,13.70
2023-01-22T17:33:51.036Z,14.17
2023-01-22T17:36:21.603Z,14.00
2023-01-22T17:38:49.855Z,12.10
2023-01-22T17:41:20.661Z,13.23
2023-01-22T17:43:51.953Z,13.90
2023-01-22T17:46:21.808Z,14.20
2023-01-22T17:48:51.785Z,16.30
2023-01-22T17:51:24.170Z,15.17
2023-01-22T17:53:54.633Z,14.27
2023-01-22T17:56:26.723Z,14.30
2023-01-22T17:58:57.493Z,14.90
2023-01-22T18:01:28.628Z,14.63
2023-01-22T18:03:57.747Z,15.90
2023-01-22T18:06:28.056Z,15.53
2023-01-22T18:08:57.000Z,14.40
2023-01-22T18:11:27.755Z,15.87
2023-01-22T18:13:56.473Z,13.53
2023-01-22T18:16:27.903Z,14.57
2023-01-22T18:18:58.918Z,15.63
2023-01-22T18:21:31.120Z,15.67
2023-01-22T18:24:00.991Z,14.87
2023-01-22T18:26:30.158Z,14.60
2023-01-22T18:29:00.105Z,15.60
2023-01-22T18:31:30.264Z,15.37
2023-01-22T18:34:00.837Z,14.53
2023-01-22T18:36:32.647Z,14.00
2023-01-22T18:39:01.913Z,14.37
2023-01-22T18:41:30.768Z,15.50
2023-01-22T18:44:01.048Z,15.50
2023-01-22T18:46:32.968Z,16.97
2023-01-22T18:49:04.454Z,16.23
2023-01-22T18:51:34.946Z,15.93
2023-01-22T18:54:04.926Z,15.13
2023-01-22T18:56:33.305Z,15.87
2023-01-22T18:59:02.044Z,19.63
2023-01-22T19:01:32.221Z,16.47
2023-01-22T19:04:02.629Z,15.70
2023-01-22T19:06:36.976Z,15.67
2023-01-22T19:09:07.929Z,16.23
2023-01-22T19:11:40.635Z,14.27
2023-01-22T19:14:10.260Z,13.80
2023-01-22T19:16:39.449Z,15.10
2023-01-22T19:19:11.322Z,14.20
2023-01-22T19:21:46.554Z,13.67
2023-01-22T19:24:16.901Z,13.30
2023-01-22T19:26:46.797Z,12.03
2023-01-22T19:29:18.533Z,12.03
2023-01-22T19:31:50.723Z,11.70
2023-01-22T19:34:23.554Z,12.57
2023-01-22T19:36:55.615Z,13.47
2023-01-22T19:39:25.616Z,12.63
2023-01-22T19:41:54.646Z,13.40
2023-01-22T19:44:25.230Z,13.10
2023-01-22T19:46:53.519Z,11.10
2023-01-22T19:49:21.971Z,11.27
2023-01-22T19:51:50.230Z,11.73
2023-01-22T19:54:20.222Z,13.27
2023-01-22T19:56:48.334Z,11.70
2023-01-22T19:59:18.767Z,13.07
2023-01-22T20:01:48.538Z,12.73
2023-01-22T20:04:21.467Z,13.00
2023-01-22T20:06:51.822Z,13.00
2023-01-22T20:09:22.590Z,12.70
2023-01-22T20:11:53.407Z,12.70
2023-01-22T20:14:22.708Z,11.90
2023-01-22T20:16:54.190Z,13.40
2023-01-22T20:19:22.391Z,12.40
2023-01-22T20:21:50.609Z,13.80
2023-01-22T20:24:18.727Z,12.77
2023-01-22T20:26:48.206Z,11.00
2023-01-22T20:29:16.331Z,10.40
2023-01-22T20:31:44.687Z,12.47
2023-01-22T20:34:12.984Z,11.07
2023-01-22T20:36:41.184Z,12.10
2023-01-22T20:39:09.382Z,11.40
2023-01-22T20:41:37.524Z,11.90
2023-01-22T20:44:07.330Z,11.80
2023-01-22T20:46:37.445Z,12.20
2023-01-22T20:49:05.585Z,11.73
2023-01-22T20:51:33.718Z,11.20
2023-01-22T20:54:01.896Z,11.70
2023-01-22T20:56:32.644Z,11.30
2023-01-22T20:59:03.090Z,10.40
2023-01-22T21:01:32.748Z,11.40
2023-01-22T21:04:01.679Z,12.47
2023-01-22T21:06:32.064Z,13.87
2023-01-22T21:09:01.916Z,13.50
2023-01-22T21:11:32.228Z,19.80
2023-01-22T21:14:01.884Z,16.70
2023-01-22T21:16:33.437Z,15.90
2023-01-22T21:19:03.135Z,16.27
2023-01-22T21:21:32.764Z,16.23
2023-01-22T21:24:01.572Z,16.73
2023-01-22T21:26:32.768Z,16.10
2023-01-22T21:29:02.681Z,15.87
2023-01-22T21:31:32.648Z,17.40
2023-01-22T21:34:05.364Z,16.97
2023-01-22T21:36:35.921Z,17.27
2023-01-22T21:39:05.586Z,18.20
2023-01-22T21:41:34.320Z,17.63
2023-01-22T21:44:20.366Z,17.40
2023-01-22T21:46:50.287Z,19.87
2023-01-22T21:49:22.551Z,18.37
2023-01-22T21:51:52.744Z,17.67
2023-01-22T21:54:22.624Z,17.60
2023-01-22T21:56:51.117Z,19.73
2023-01-22T21:59:19.777Z,19.37
2023-01-22T22:01:50.237Z,20.00
2023-01-22T22:04:18.781Z,18.00
2023-01-22T22:06:47.139Z,20.30
2023-01-22T22:09:17.386Z,18.13
2023-01-22T22:11:46.293Z,18.40
2023-01-22T22:14:16.685Z,19.17
2023-01-22T22:16:45.612Z,18.40
2023-01-22T22:19:15.853Z,17.70
2023-01-22T22:21:44.017Z,17.63
2023-01-22T22:24:12.753Z,18.93
2023-01-22T22:26:41.521Z,18.83
2023-01-22T22:29:10.739Z,18.60
2023-01-22T22:31:39.541Z,16.83
2023-01-22T22:34:07.889Z,17.00
2023-01-22T22:36:37.401Z,17.03
2023-01-22T22:39:07.093Z,15.57
2023-01-22T22:41:38.388Z,17.27
2023-01-22T22:44:07.318Z,18.70
2023-01-22T22:46:37.057Z,15.60
2023-01-22T22:49:06.048Z,18.57
2023-01-22T22:51:36.273Z,17.00
2023-01-22T22:54:07.877Z,17.40
2023-01-22T22:56:36.011Z,16.87
2023-01-22T22:59:05.171Z,16.73
2023-01-22T23:01:35.471Z,17.90
2023-01-22T23:04:03.748Z,18.00
2023-01-22T23:06:35.535Z,16.13
2023-01-22T23:09:06.705Z,16.50
2023-01-22T23:11:36.253Z,17.03
2023-01-22T23:14:05.346Z,15.63
2023-01-22T23:16:36.971Z,18.50
2023-01-22T23:19:08.504Z,15.73
2023-01-22T23:21:40.913Z,16.03
2023-01-22T23:24:11.562Z,15.67
2023-01-22T23:26:40.938Z,15.83
2023-01-22T23:29:11.531Z,17.10
2023-01-22T23:31:40.293Z,16.53
2023-01-22T23:34:12.051Z,14.97
2023-01-22T23:36:43.246Z,15.10
2023-01-22T23:39:13.972Z,14.90
2023-01-22T23:41:42.195Z,15.93
2023-01-22T23:44:11.607Z,16.37
2023-01-22T23:46:39.828Z,14.33
2023-01-22T23:49:08.012Z,14.90
2023-01-22T23:51:38.172Z,15.20
2023-01-22T23:54:06.417Z,14.37
2023-01-22T23:56:35.990Z,15.20
2023-01-22T23:59:04.535Z,16.27
